createdAt,value
2022-12-18T00:02:04.606Z,28.96
2022-12-18T00:04:54.823Z,28.87
2022-12-18T00:07:45.472Z,28.96
2022-12-18T00:10:35.386Z,29.01
2022-12-18T00:13:25.687Z,29.02
2022-12-18T00:16:23.807Z,29.03
2022-12-18T00:19:14.662Z,29.09
2022-12-18T00:22:04.783Z,29.11
2022-12-18T00:24:55.177Z,29.07
2022-12-18T00:27:44.949Z,29.13
2022-12-18T00:30:36.275Z,29.18
2022-12-18T00:33:26.255Z,29.15
2022-12-18T00:36:19.914Z,28.86
2022-12-18T00:39:10.659Z,29.21
2022-12-18T00:42:18.837Z,29.30
2022-12-18T00:45:12.993Z,29.29
2022-12-18T00:48:03.188Z,29.35
2022-12-18T00:50:54.920Z,29.35
2022-12-18T00:53:44.920Z,29.37
2022-12-18T00:56:34.921Z,29.36
2022-12-18T00:59:24.952Z,29.35
2022-12-18T01:02:14.925Z,29.39
2022-12-18T01:05:07.789Z,29.37
2022-12-18T01:07:59.571Z,29.41
2022-12-18T01:10:49.727Z,29.40
2022-12-18T01:13:40.135Z,29.44
2022-12-18T01:16:30.680Z,29.46
2022-12-18T01:19:20.781Z,29.45
2022-12-18T01:22:10.911Z,29.48
2022-12-18T01:25:01.161Z,29.50
2022-12-18T01:27:51.054Z,29.50
2022-12-18T01:30:41.369Z,29.46
2022-12-18T01:33:31.529Z,29.54
2022-12-18T01:36:27.455Z,29.44
2022-12-18T01:39:18.390Z,29.43
2022-12-18T01:42:17.825Z,29.14
2022-12-18T01:45:17.073Z,29.64
2022-12-18T01:48:11.432Z,29.16
2022-12-18T01:51:01.610Z,29.56
2022-12-18T01:53:52.762Z,29.55
2022-12-18T01:56:42.974Z,29.63
2022-12-18T01:59:35.774Z,29.37
2022-12-18T02:02:26.306Z,29.72
2022-12-18T02:05:55.044Z,29.68
2022-12-18T02:09:10.457Z,29.77
2022-12-18T02:12:26.994Z,29.82
2022-12-18T02:15:28.129Z,29.74
2022-12-18T02:18:35.660Z,29.92
2022-12-18T02:21:46.835Z,29.90
2022-12-18T02:25:02.972Z,29.89
2022-12-18T02:27:56.097Z,30.01
2022-12-18T02:30:50.154Z,29.91
2022-12-18T02:33:42.346Z,29.70
2022-12-18T02:36:35.207Z,30.03
2022-12-18T02:39:28.865Z,30.13
2022-12-18T02:42:27.343Z,30.13
2022-12-18T02:45:17.658Z,30.15
2022-12-18T02:48:10.901Z,30.14
2022-12-18T02:51:11.563Z,30.18
2022-12-18T02:54:24.114Z,29.69
2022-12-18T02:57:38.945Z,29.40
2022-12-18T03:00:55.115Z,29.71
2022-12-18T03:03:55.685Z,30.25
2022-12-18T03:06:57.732Z,29.85
2022-12-18T03:09:51.715Z,29.96
2022-12-18T03:12:48.008Z,30.20
2022-12-18T03:15:56.151Z,29.86
2022-12-18T03:19:09.736Z,29.84
2022-12-18T03:22:03.554Z,30.25
2022-12-18T03:25:07.142Z,30.42
2022-12-18T03:28:01.753Z,29.91
2022-12-18T03:30:59.988Z,30.48
2022-12-18T03:34:03.003Z,30.52
2022-12-18T03:37:01.737Z,30.51
2022-12-18T03:39:53.960Z,30.47
2022-12-18T03:42:59.947Z,30.50
2022-12-18T03:45:59.404Z,30.50
2022-12-18T03:48:55.554Z,30.43
2022-12-18T03:51:50.975Z,30.40
2022-12-18T03:54:44.489Z,29.98
2022-12-18T03:57:38.821Z,30.25
2022-12-18T04:00:29.415Z,30.34
2022-12-18T04:03:30.092Z,29.87
2022-12-18T04:06:21.411Z,30.31
2022-12-18T04:09:12.519Z,30.33
2022-12-18T04:12:07.214Z,30.33
2022-12-18T04:14:58.360Z,30.39
2022-12-18T04:17:53.236Z,30.46
2022-12-18T04:20:46.849Z,30.40
2022-12-18T04:23:38.727Z,30.54
2022-12-18T04:26:28.976Z,30.59
2022-12-18T04:29:36.083Z,30.66
2022-12-18T04:32:26.103Z,30.69
2022-12-18T04:35:16.272Z,30.68
2022-12-18T04:38:10.963Z,30.66
2022-12-18T04:41:01.580Z,30.88
2022-12-18T04:43:53.521Z,30.88
2022-12-18T04:46:43.483Z,30.94
2022-12-18T04:49:34.005Z,30.97
2022-12-18T04:52:26.585Z,31.00
2022-12-18T04:55:16.524Z,31.04
2022-12-18T04:58:06.601Z,31.02
2022-12-18T05:01:03.529Z,31.09
2022-12-18T05:03:55.284Z,31.12
2022-12-18T05:06:52.576Z,31.13
2022-12-18T05:09:49.169Z,31.15
2022-12-18T05:12:58.873Z,31.14
2022-12-18T05:15:55.432Z,31.14
2022-12-18T05:18:45.695Z,31.22
2022-12-18T05:21:35.634Z,31.16
2022-12-18T05:24:25.495Z,31.14
2022-12-18T05:27:15.358Z,31.08
2022-12-18T05:30:05.866Z,30.99
2022-12-18T05:32:56.671Z,31.01
2022-12-18T05:35:46.409Z,31.00
2022-12-18T05:38:38.840Z,30.71
2022-12-18T05:41:29.216Z,30.99
2022-12-18T05:44:19.283Z,31.02
2022-12-18T05:47:09.428Z,30.98
2022-12-18T05:49:59.762Z,31.03
2022-12-18T05:52:49.793Z,31.01
2022-12-18T05:55:42.596Z,30.66
2022-12-18T05:58:32.713Z,30.92
2022-12-18T06:01:29.814Z,30.88
2022-12-18T06:04:21.659Z,30.81
2022-12-18T06:07:11.698Z,30.77
2022-12-18T06:10:02.056Z,30.73
2022-12-18T06:12:52.329Z,30.67
2022-12-18T06:15:42.215Z,30.64
2022-12-18T06:18:32.278Z,30.58
2022-12-18T06:21:22.278Z,30.54
2022-12-18T06:24:12.497Z,30.50
2022-12-18T06:27:02.374Z,30.44
2022-12-18T06:29:52.491Z,30.36
2022-12-18T06:32:42.791Z,30.38
2022-12-18T06:35:32.949Z,30.25
2022-12-18T06:38:23.313Z,30.37
2022-12-18T06:41:18.718Z,30.32
2022-12-18T06:44:09.226Z,30.28
2022-12-18T06:47:01.161Z,30.33
2022-12-18T06:49:51.095Z,30.32
2022-12-18T06:52:41.935Z,30.28
2022-12-18T06:55:31.745Z,30.27
2022-12-18T06:58:22.768Z,30.26
2022-12-18T07:01:14.861Z,30.31
2022-12-18T07:04:05.364Z,30.27
2022-12-18T07:06:55.564Z,30.28
2022-12-18T07:09:45.647Z,30.30
2022-12-18T07:12:35.895Z,30.30
2022-12-18T07:15:25.716Z,30.26
2022-12-18T07:18:16.613Z,30.26
2022-12-18T07:21:15.109Z,30.35
2022-12-18T07:24:05.201Z,30.34
2022-12-18T07:26:55.706Z,30.36
2022-12-18T07:29:45.930Z,30.35
2022-12-18T07:32:36.849Z,30.34
2022-12-18T07:35:27.000Z,30.31
2022-12-18T07:38:16.983Z,30.35
2022-12-18T07:41:12.925Z,30.34
2022-12-18T07:44:03.417Z,30.35
2022-12-18T07:46:53.494Z,30.45
2022-12-18T07:49:43.756Z,30.51
2022-12-18T07:52:33.327Z,30.65
2022-12-18T07:55:24.440Z,30.63
2022-12-18T07:58:14.207Z,30.82
2022-12-18T08:01:10.224Z,30.79
2022-12-18T08:04:01.799Z,30.96
2022-12-18T08:06:51.479Z,31.01
2022-12-18T08:09:41.303Z,31.08
2022-12-18T08:12:31.247Z,31.05
2022-12-18T08:15:21.442Z,31.15
2022-12-18T08:18:14.278Z,31.25
2022-12-18T08:21:15.682Z,31.28
2022-12-18T08:24:06.098Z,31.35
2022-12-18T08:27:27.946Z,31.37
2022-12-18T08:30:08.073Z,31.43
2022-12-18T08:32:58.145Z,31.42
2022-12-18T08:35:48.065Z,31.46
2022-12-18T08:38:38.360Z,31.48
2022-12-18T08:41:28.306Z,31.40
2022-12-18T08:44:36.780Z,31.50
2022-12-18T08:47:26.665Z,31.50
2022-12-18T08:50:17.376Z,31.42
2022-12-18T08:53:08.220Z,31.40
2022-12-18T08:56:00.401Z,31.47
2022-12-18T08:58:50.580Z,31.28
2022-12-18T09:01:41.153Z,31.50
2022-12-18T09:04:30.964Z,31.52
2022-12-18T09:07:21.038Z,31.55
2022-12-18T09:10:11.310Z,31.51
2022-12-18T09:13:01.631Z,31.56
2022-12-18T09:15:54.010Z,31.60
2022-12-18T09:18:44.006Z,31.58
2022-12-18T09:21:37.262Z,31.35
2022-12-18T09:24:27.505Z,31.64
2022-12-18T09:27:17.257Z,31.66
2022-12-18T09:30:07.993Z,31.68
2022-12-18T09:32:58.547Z,31.66
2022-12-18T09:35:49.316Z,31.71
2022-12-18T09:38:39.750Z,31.73
2022-12-18T09:41:58.416Z,31.65
2022-12-18T09:44:53.818Z,31.31
2022-12-18T09:47:46.416Z,31.29
2022-12-18T09:50:42.113Z,31.54
2022-12-18T09:53:38.156Z,31.53
2022-12-18T09:56:31.835Z,31.25
2022-12-18T09:59:35.033Z,31.43
2022-12-18T10:02:33.543Z,31.12
2022-12-18T10:05:32.648Z,31.46
2022-12-18T10:08:55.893Z,31.24
2022-12-18T10:12:16.704Z,31.39
2022-12-18T10:15:19.709Z,31.41
2022-12-18T10:18:31.434Z,31.36
2022-12-18T10:21:30.305Z,31.31
2022-12-18T10:25:01.567Z,31.13
2022-12-18T10:27:57.855Z,31.50
2022-12-18T10:30:48.110Z,31.57
2022-12-18T10:33:39.168Z,31.58
2022-12-18T10:36:29.241Z,31.59
2022-12-18T10:39:20.937Z,31.59
2022-12-18T10:42:21.306Z,31.28
2022-12-18T10:45:22.307Z,31.58
2022-12-18T10:48:33.662Z,31.48
2022-12-18T10:51:36.448Z,31.49
2022-12-18T10:54:28.463Z,31.53
2022-12-18T10:57:31.555Z,31.51
2022-12-18T11:00:31.734Z,31.47
2022-12-18T11:03:40.572Z,31.36
2022-12-18T11:06:30.527Z,31.32
2022-12-18T11:09:26.359Z,31.30
2022-12-18T11:12:25.520Z,31.26
2022-12-18T11:15:26.540Z,30.90
2022-12-18T11:18:39.092Z,31.14
2022-12-18T11:21:29.653Z,31.12
2022-12-18T11:24:28.747Z,31.15
2022-12-18T11:27:21.683Z,31.19
2022-12-18T11:30:31.095Z,31.11
2022-12-18T11:33:25.788Z,30.81
2022-12-18T11:36:17.714Z,31.14
2022-12-18T11:39:22.457Z,31.05
2022-12-18T11:42:25.325Z,31.06
2022-12-18T11:45:15.874Z,31.11
2022-12-18T11:48:27.092Z,31.01
2022-12-18T11:51:31.256Z,30.68
2022-12-18T11:54:21.161Z,31.03
2022-12-18T11:57:40.998Z,30.69
2022-12-18T12:00:31.677Z,31.01
2022-12-18T12:03:51.913Z,30.99
2022-12-18T12:07:12.821Z,30.86
2022-12-18T12:10:26.516Z,30.90
2022-12-18T12:13:39.233Z,30.93
2022-12-18T12:17:09.954Z,30.60
2022-12-18T12:20:22.131Z,30.93
2022-12-18T12:23:33.872Z,30.96
2022-12-18T12:26:50.306Z,30.77
2022-12-18T12:29:58.397Z,30.67
2022-12-18T12:32:53.785Z,30.66
2022-12-18T12:36:25.133Z,30.44
2022-12-18T12:39:24.914Z,30.14
2022-12-18T12:42:48.619Z,30.23
2022-12-18T12:46:15.360Z,30.28
2022-12-18T12:49:13.118Z,30.31
2022-12-18T12:52:33.520Z,30.28
2022-12-18T12:55:30.483Z,30.23
2022-12-18T12:58:41.698Z,30.17
2022-12-18T13:01:44.222Z,29.99
2022-12-18T13:04:48.019Z,30.03
2022-12-18T13:07:51.089Z,29.93
2022-12-18T13:10:43.845Z,29.92
2022-12-18T13:13:50.881Z,29.68
2022-12-18T13:16:41.383Z,29.72
2022-12-18T13:19:31.552Z,29.74
2022-12-18T13:22:28.196Z,29.77
2022-12-18T13:25:50.285Z,29.57
2022-12-18T13:29:00.227Z,29.41
2022-12-18T13:31:53.351Z,29.64
2022-12-18T13:34:44.098Z,29.55
2022-12-18T13:37:58.127Z,29.47
2022-12-18T13:40:51.560Z,29.53
2022-12-18T13:43:52.385Z,29.53
2022-12-18T13:46:48.538Z,29.49
2022-12-18T13:49:44.511Z,29.36
2022-12-18T13:52:42.438Z,29.44
2022-12-18T13:55:33.157Z,29.40
2022-12-18T13:58:23.324Z,29.37
2022-12-18T14:01:27.086Z,29.24
2022-12-18T14:04:38.143Z,29.25
2022-12-18T14:07:35.919Z,29.02
2022-12-18T14:10:48.475Z,29.29
2022-12-18T14:13:45.296Z,29.28
2022-12-18T14:16:36.079Z,29.25
2022-12-18T14:19:28.055Z,29.19
2022-12-18T14:22:31.950Z,28.90
2022-12-18T14:25:32.727Z,29.13
2022-12-18T14:28:24.481Z,29.12
2022-12-18T14:31:29.519Z,29.00
2022-12-18T14:34:20.045Z,29.11
2022-12-18T14:37:14.131Z,29.09
2022-12-18T14:40:10.857Z,29.00
2022-12-18T14:43:01.093Z,28.98
2022-12-18T14:45:52.202Z,29.00
2022-12-18T14:48:45.463Z,28.79
2022-12-18T14:51:37.325Z,28.94
2022-12-18T14:54:30.304Z,28.92
2022-12-18T14:57:36.743Z,28.49
2022-12-18T15:00:28.623Z,28.60
2022-12-18T15:03:22.816Z,28.61
2022-12-18T15:06:30.754Z,28.78
2022-12-18T15:09:28.826Z,28.79
2022-12-18T15:13:10.484Z,28.68
2022-12-18T15:16:05.817Z,28.42
2022-12-18T15:18:56.633Z,28.80
2022-12-18T15:21:46.984Z,28.79
2022-12-18T15:24:37.287Z,28.76
2022-12-18T15:27:50.127Z,28.71
2022-12-18T15:30:40.476Z,28.80
2022-12-18T15:33:36.045Z,28.77
2022-12-18T15:36:27.215Z,28.79
2022-12-18T15:39:17.583Z,28.70
2022-12-18T15:42:30.078Z,28.74
2022-12-18T15:45:20.917Z,28.75
2022-12-18T15:48:25.249Z,28.50
2022-12-18T15:51:39.019Z,28.78
2022-12-18T15:54:48.179Z,28.72
2022-12-18T15:57:38.653Z,28.74
2022-12-18T16:00:29.543Z,28.72
2022-12-18T16:03:20.143Z,28.73
2022-12-18T16:06:11.957Z,28.70
2022-12-18T16:09:01.954Z,28.69
2022-12-18T16:11:52.107Z,28.67
2022-12-18T16:14:42.536Z,28.62
2022-12-18T16:17:32.903Z,28.65
2022-12-18T16:20:25.218Z,28.65
2022-12-18T16:23:15.905Z,28.62
2022-12-18T16:26:07.243Z,28.62
2022-12-18T16:28:57.539Z,28.58
2022-12-18T16:31:47.744Z,28.57
2022-12-18T16:34:38.442Z,28.59
2022-12-18T16:37:29.360Z,28.54
2022-12-18T16:40:20.955Z,28.51
2022-12-18T16:43:12.154Z,28.48
2022-12-18T16:46:02.727Z,28.46
2022-12-18T16:48:53.278Z,28.48
2022-12-18T16:51:43.376Z,28.42
2022-12-18T16:54:38.100Z,28.40
2022-12-18T16:57:28.668Z,28.27
2022-12-18T17:00:19.708Z,28.35
2022-12-18T17:03:10.241Z,28.38
2022-12-18T17:06:08.086Z,28.38
2022-12-18T17:08:59.784Z,28.07
2022-12-18T17:11:49.777Z,28.38
2022-12-18T17:14:40.319Z,28.38
2022-12-18T17:17:30.968Z,28.36
2022-12-18T17:20:21.355Z,28.32
2022-12-18T17:23:11.819Z,28.30
2022-12-18T17:26:02.714Z,28.33
2022-12-18T17:28:52.875Z,28.27
2022-12-18T17:31:42.985Z,28.27
2022-12-18T17:34:33.277Z,28.29
2022-12-18T17:37:23.727Z,28.17
2022-12-18T17:40:13.623Z,28.24
2022-12-18T17:43:03.705Z,28.23
2022-12-18T17:45:53.809Z,28.23
2022-12-18T17:48:45.908Z,28.20
2022-12-18T17:51:35.698Z,28.20
2022-12-18T17:54:25.589Z,28.21
2022-12-18T17:57:15.403Z,28.18
2022-12-18T18:00:08.780Z,28.19
2022-12-18T18:02:59.141Z,27.91
2022-12-18T18:05:49.143Z,28.13
2022-12-18T18:08:38.984Z,28.11
2022-12-18T18:11:47.018Z,28.06
2022-12-18T18:14:36.854Z,27.71
2022-12-18T18:17:27.894Z,28.06
2022-12-18T18:20:22.541Z,28.07
2022-12-18T18:23:12.963Z,28.06
2022-12-18T18:26:10.852Z,27.82
2022-12-18T18:29:03.061Z,28.02
2022-12-18T18:31:55.218Z,27.97
2022-12-18T18:34:45.100Z,27.97
2022-12-18T18:37:34.898Z,27.95
2022-12-18T18:40:25.139Z,27.93
2022-12-18T18:43:17.813Z,27.91
2022-12-18T18:46:08.384Z,27.91
2022-12-18T18:48:58.365Z,27.80
2022-12-18T18:51:48.120Z,27.88
2022-12-18T18:54:44.308Z,27.80
2022-12-18T18:57:43.512Z,27.87
2022-12-18T19:00:33.251Z,27.83
2022-12-18T19:03:23.893Z,27.84
2022-12-18T19:06:20.999Z,27.82
2022-12-18T19:09:11.160Z,27.82
2022-12-18T19:12:19.255Z,27.80
2022-12-18T19:15:09.717Z,27.76
2022-12-18T19:17:59.951Z,27.78
2022-12-18T19:21:01.247Z,27.10
2022-12-18T19:23:52.165Z,27.69
2022-12-18T19:26:42.335Z,27.71
2022-12-18T19:29:32.994Z,27.69
2022-12-18T19:32:22.947Z,27.71
2022-12-18T19:35:13.690Z,27.70
2022-12-18T19:38:04.770Z,27.69
2022-12-18T19:40:55.334Z,27.66
2022-12-18T19:43:46.253Z,27.66
2022-12-18T19:46:38.289Z,27.58
2022-12-18T19:49:31.749Z,27.66
2022-12-18T19:52:22.374Z,27.63
2022-12-18T19:55:13.007Z,27.37
2022-12-18T19:58:02.702Z,27.62
2022-12-18T20:00:52.989Z,27.52
2022-12-18T20:03:42.796Z,27.54
2022-12-18T20:06:55.141Z,26.95
2022-12-18T20:09:45.242Z,27.51
2022-12-18T20:12:36.029Z,27.49
2022-12-18T20:15:25.982Z,27.49
2022-12-18T20:18:16.472Z,27.50
2022-12-18T20:21:13.623Z,27.42
2022-12-18T20:24:04.124Z,27.39
2022-12-18T20:26:54.453Z,27.42
2022-12-18T20:29:45.210Z,27.40
2022-12-18T20:32:37.178Z,27.38
2022-12-18T20:35:30.159Z,27.40
2022-12-18T20:38:20.363Z,27.34
2022-12-18T20:41:17.856Z,27.29
2022-12-18T20:44:22.760Z,27.36
2022-12-18T20:47:14.238Z,27.35
2022-12-18T20:50:04.540Z,27.32
2022-12-18T20:52:54.547Z,27.32
2022-12-18T20:55:44.703Z,27.30
2022-12-18T20:58:34.553Z,27.29
2022-12-18T21:01:26.125Z,26.98
2022-12-18T21:04:16.337Z,27.28
2022-12-18T21:07:08.242Z,27.20
2022-12-18T21:09:58.695Z,27.23
2022-12-18T21:12:58.834Z,27.23
2022-12-18T21:15:51.560Z,27.22
2022-12-18T21:18:41.556Z,27.14
2022-12-18T21:21:38.007Z,27.18
2022-12-18T21:24:30.589Z,27.16
2022-12-18T21:27:22.970Z,27.05
2022-12-18T21:30:13.524Z,27.12
2022-12-18T21:33:03.495Z,27.11
2022-12-18T21:35:53.119Z,27.06
2022-12-18T21:38:43.553Z,27.09
2022-12-18T21:41:52.956Z,27.08
2022-12-18T21:44:46.634Z,27.07
2022-12-18T21:47:36.740Z,27.04
2022-12-18T21:50:27.031Z,27.02
2022-12-18T21:53:16.833Z,26.95
2022-12-18T21:56:07.396Z,26.98
2022-12-18T21:58:57.645Z,26.97
2022-12-18T22:01:49.081Z,26.96
2022-12-18T22:04:39.454Z,26.93
2022-12-18T22:07:30.660Z,26.88
2022-12-18T22:10:20.620Z,26.96
2022-12-18T22:13:10.621Z,26.95
2022-12-18T22:16:01.070Z,26.95
2022-12-18T22:18:50.622Z,26.94
2022-12-18T22:21:43.790Z,26.96
2022-12-18T22:24:35.452Z,26.93
2022-12-18T22:27:25.328Z,26.93
2022-12-18T22:30:16.033Z,26.93
2022-12-18T22:33:06.145Z,26.92
2022-12-18T22:35:56.464Z,26.88
2022-12-18T22:38:49.007Z,26.55
2022-12-18T22:41:38.723Z,26.73
2022-12-18T22:44:28.690Z,26.84
2022-12-18T22:47:18.556Z,26.71
2022-12-18T22:50:09.272Z,26.81
2022-12-18T22:52:58.966Z,26.80
2022-12-18T22:55:49.151Z,26.79
2022-12-18T22:58:39.587Z,26.77
2022-12-18T23:01:32.189Z,26.73
2022-12-18T23:04:24.118Z,26.70
2022-12-18T23:07:16.254Z,26.80
2022-12-18T23:10:06.622Z,26.88
2022-12-18T23:12:57.504Z,26.95
2022-12-18T23:15:47.339Z,27.03
2022-12-18T23:18:38.210Z,27.08
2022-12-18T23:21:27.973Z,27.14
2022-12-18T23:24:20.051Z,27.17
2022-12-18T23:27:11.773Z,27.03
2022-12-18T23:30:02.053Z,27.29
2022-12-18T23:32:51.805Z,27.34
2022-12-18T23:35:42.124Z,27.35
2022-12-18T23:38:33.226Z,27.47
2022-12-18T23:41:24.773Z,27.55
2022-12-18T23:44:14.600Z,27.58
2022-12-18T23:47:05.119Z,27.62
2022-12-18T23:49:55.242Z,27.70
2022-12-18T23:52:45.735Z,27.74
2022-12-18T23:55:41.987Z,27.78
2022-12-18T23:58:32.241Z,27.84
